Back to Top

Language: 

My Weather Underground Personal Weather Station Historical Data with Graphs...

Delerius Weather Station Historical Data
Daily Summary for June 11, 2017 Units:  Metric    English   Both
« Previous Day
Next Day »
Daily Weekly Monthly Yearly Custom
  High: Low: Average:
Temperature: 19.3 °C 12.9 °C 15.7 °C
Dew Point: 13.5 °C 8.9 °C 10.9 °C
Humidity: 88 % 57 % 74 %
Wind Speed: 32.2 km/h 8 km/h 19.8 km/h
Wind Gust: 61.2 km/h - -
Wind:- - SW
Pressure: 1011.7 hPa 1006.7 hPa -
Precipitation: 0.25 mm    
Historical Graphs
 
 
Tabular Data for June 11, 2017
Time Temperature Dew Point Pressure Wind Wind Speed Wind Gust Humidity Rainfall Rate (Hourly) solar Conditions
00:01 14.7 °C 12.2 °C 1011.4 hPa SW 12.9 km/h 22.5 km/h 85 % 0 mm 0 W/m2
00:06 14.7 °C 12.2 °C 1011.4 hPa WSW 12.9 km/h 19.3 km/h 85 % 0 mm 0 W/m2
00:12 14.6 °C 12.1 °C 1011.4 hPa WSW 12.9 km/h 20.9 km/h 85 % 0 mm 0 W/m2
00:17 14.6 °C 12.1 °C 1011.4 hPa WSW 11.3 km/h 20.9 km/h 85 % 0 mm 0 W/m2
00:22 14.5 °C 12 °C 1011.7 hPa WSW 11.3 km/h 19.3 km/h 85 % 0 mm 0 W/m2
00:27 14.4 °C 11.9 °C 1011.4 hPa WSW 11.3 km/h 17.7 km/h 85 % 0 mm 0 W/m2
00:32 14.4 °C 11.9 °C 1011.7 hPa WSW 9.7 km/h 17.7 km/h 85 % 0 mm 0 W/m2
00:37 14.3 °C 11.8 °C 1011.7 hPa SW 8 km/h 14.5 km/h 85 % 0 mm 0 W/m2
00:38 14.2 °C 11.9 °C 1011.7 hPa SW 8 km/h 14.5 km/h 86 % 0 mm 0 W/m2
00:43 14.2 °C 11.9 °C 1011.7 hPa SW 9.7 km/h 22.5 km/h 86 % 0 mm 0 W/m2
00:48 14.2 °C 11.9 °C 1011.7 hPa SW 12.9 km/h 22.5 km/h 86 % 0 mm 0 W/m2
00:53 14.2 °C 11.7 °C 1011.7 hPa SW 11.3 km/h 19.3 km/h 85 % 0 mm 0 W/m2
00:58 14.2 °C 11.7 °C 1011.7 hPa SW 9.7 km/h 17.7 km/h 85 % 0 mm 0 W/m2
01:03 14.1 °C 11.8 °C 1011.4 hPa SW 9.7 km/h 16.1 km/h 86 % 0 mm 0 W/m2
01:09 14 °C 11.7 °C 1011.4 hPa SW 9.7 km/h 17.7 km/h 86 % 0 mm 0 W/m2
01:14 14 °C 11.7 °C 1011.7 hPa SW 11.3 km/h 17.7 km/h 86 % 0 mm 0 W/m2
01:19 13.9 °C 11.6 °C 1011.4 hPa SW 11.3 km/h 16.1 km/h 86 % 0 mm 0 W/m2
01:24 13.9 °C 11.6 °C 1011.4 hPa SW 11.3 km/h 16.1 km/h 86 % 0 mm 0 W/m2
01:29 13.9 °C 11.8 °C 1011.4 hPa SW 11.3 km/h 19.3 km/h 87 % 0 mm 0 W/m2
01:34 13.9 °C 11.8 °C 1011.4 hPa SW 11.3 km/h 20.9 km/h 87 % 0 mm 0 W/m2
01:39 14 °C 11.9 °C 1011.4 hPa SW 11.3 km/h 25.7 km/h 87 % 0 mm 0 W/m2
01:44 14 °C 11.7 °C 1011.4 hPa SW 12.9 km/h 25.7 km/h 86 % 0 mm 0 W/m2
01:49 14.1 °C 11.8 °C 1011.1 hPa SSW 12.9 km/h 22.5 km/h 86 % 0 mm 0 W/m2
01:54 14.1 °C 11.8 °C 1011.1 hPa SSW 14.5 km/h 22.5 km/h 86 % 0 mm 0 W/m2
01:59 14.1 °C 11.8 °C 1011.1 hPa SW 11.3 km/h 17.7 km/h 86 % 0 mm 0 W/m2
02:04 14 °C 11.7 °C 1011.1 hPa SW 12.9 km/h 19.3 km/h 86 % 0 mm 0 W/m2
02:09 14 °C 11.7 °C 1011.1 hPa SSW 14.5 km/h 22.5 km/h 86 % 0 mm 0 W/m2
02:14 14.1 °C 11.6 °C 1011.1 hPa SSW 16.1 km/h 25.7 km/h 85 % 0 mm 0 W/m2
02:19 14.1 °C 11.6 °C 1011.1 hPa SSW 16.1 km/h 25.7 km/h 85 % 0 mm 0 W/m2
02:24 14.1 °C 11.6 °C 1011.1 hPa SSW 14.5 km/h 22.5 km/h 85 % 0 mm 0 W/m2
02:29 13.9 °C 11.4 °C 1011.1 hPa SW 11.3 km/h 22.5 km/h 85 % 0 mm 0 W/m2
02:34 13.8 °C 11.5 °C 1011.1 hPa SW 11.3 km/h 16.1 km/h 86 % 0 mm 0 W/m2
02:40 13.8 °C 11.5 °C 1011.1 hPa SW 11.3 km/h 17.7 km/h 86 % 0 mm 0 W/m2
02:45 13.7 °C 11.4 °C 1011.1 hPa SW 11.3 km/h 17.7 km/h 86 % 0 mm 0 W/m2
02:50 13.6 °C 11.3 °C 1011.1 hPa SW 11.3 km/h 17.7 km/h 86 % 0 mm 0 W/m2
02:55 13.6 °C 11.5 °C 1011.1 hPa SW 9.7 km/h 17.7 km/h 87 % 0 mm 0 W/m2
03:00 13.5 °C 11.4 °C 1011.1 hPa SW 9.7 km/h 12.9 km/h 87 % 0 mm 0 W/m2
03:05 13.4 °C 11.3 °C 1011.1 hPa SW 9.7 km/h 16.1 km/h 87 % 0 mm 0 W/m2
03:10 13.4 °C 11.3 °C 1011.1 hPa SW 11.3 km/h 17.7 km/h 87 % 0 mm 0 W/m2
03:15 13.4 °C 11.3 °C 1011.1 hPa SSW 12.9 km/h 20.9 km/h 87 % 0 mm 0 W/m2
03:20 13.4 °C 11.3 °C 1011.1 hPa SSW 14.5 km/h 20.9 km/h 87 % 0 mm 0 W/m2
03:25 13.4 °C 11.3 °C 1011.1 hPa SSW 14.5 km/h 24.1 km/h 87 % 0 mm 0 W/m2
03:30 13.6 °C 11.5 °C 1011.1 hPa SSW 16.1 km/h 24.1 km/h 87 % 0 mm 0 W/m2
03:35 13.6 °C 11.5 °C 1011.1 hPa SSW 14.5 km/h 22.5 km/h 87 % 0 mm 0 W/m2
03:45 13.5 °C 11.4 °C 1011.1 hPa SW 14.5 km/h 22.5 km/h 87 % 0 mm 0 W/m2
03:50 13.5 °C 11.4 °C 1011.1 hPa SW 16.1 km/h 22.5 km/h 87 % 0 mm 0 W/m2
03:55 13.5 °C 11.4 °C 1010.7 hPa SW 14.5 km/h 22.5 km/h 87 % 0 mm 0 W/m2
04:00 13.5 °C 11.4 °C 1011.1 hPa SW 12.9 km/h 19.3 km/h 87 % 0 mm 0 W/m2
04:05 13.4 °C 11.3 °C 1010.7 hPa SW 14.5 km/h 20.9 km/h 87 % 0 mm 0 W/m2
04:10 13.4 °C 11.3 °C 1010.7 hPa SW 14.5 km/h 20.9 km/h 87 % 0 mm 0 W/m2
04:15 13.4 °C 11.3 °C 1010.7 hPa SW 16.1 km/h 22.5 km/h 87 % 0 mm 0 W/m2
04:20 13.4 °C 11.3 °C 1010.7 hPa SW 16.1 km/h 22.5 km/h 87 % 0 mm 0 W/m2
04:25 13.3 °C 11.2 °C 1010.7 hPa SW 14.5 km/h 22.5 km/h 87 % 0 mm 0 W/m2
04:30 13.3 °C 11.2 °C 1010.7 hPa SW 14.5 km/h 22.5 km/h 87 % 0 mm 0 W/m2
04:35 13.2 °C 11.1 °C 1010.7 hPa SW 14.5 km/h 20.9 km/h 87 % 0 mm 5 W/m2
04:40 13.1 °C 11 °C 1010.7 hPa SW 14.5 km/h 20.9 km/h 87 % 0 mm 5 W/m2
04:45 13.1 °C 11 °C 1010.7 hPa SW 14.5 km/h 20.9 km/h 87 % 0 mm 9 W/m2
04:50 13.1 °C 11 °C 1010.7 hPa SW 14.5 km/h 20.9 km/h 87 % 0 mm 11 W/m2
04:55 13 °C 10.9 °C 1010.7 hPa SW 14.5 km/h 19.3 km/h 87 % 0 mm 14 W/m2
05:00 13 °C 11.1 °C 1010.4 hPa SW 14.5 km/h 19.3 km/h 88 % 0 mm 18 W/m2
05:05 12.9 °C 10.9 °C 1010.7 hPa SW 14.5 km/h 19.3 km/h 88 % 0 mm 21 W/m2
05:11 12.9 °C 10.9 °C 1010.4 hPa SW 12.9 km/h 19.3 km/h 88 % 0 mm 23 W/m2
05:15 13 °C 11.1 °C 1010.4 hPa SW 12.9 km/h 20.9 km/h 88 % 0 mm 28 W/m2
05:21 13.1 °C 11.2 °C 1010.4 hPa SW 14.5 km/h 20.9 km/h 88 % 0 mm 26 W/m2
05:31 13.4 °C 11.3 °C 1010.7 hPa SW 12.9 km/h 20.9 km/h 87 % 0 mm 30 W/m2
05:36 13.4 °C 11.3 °C 1010.4 hPa SW 12.9 km/h 20.9 km/h 87 % 0 mm 37 W/m2
05:41 13.4 °C 11.1 °C 1010.4 hPa SW 14.5 km/h 22.5 km/h 86 % 0 mm 26 W/m2
05:46 13.5 °C 11.2 °C 1010.4 hPa SW 16.1 km/h 22.5 km/h 86 % 0 mm 26 W/m2
05:51 13.6 °C 11.1 °C 1010.4 hPa SW 16.1 km/h 22.5 km/h 85 % 0 mm 33 W/m2
05:56 13.6 °C 11.1 °C 1010.4 hPa SW 16.1 km/h 22.5 km/h 85 % 0 mm 37 W/m2
06:01 13.7 °C 11.2 °C 1010.4 hPa SW 16.1 km/h 25.7 km/h 85 % 0 mm 42 W/m2
06:06 13.7 °C 11.1 °C 1010.4 hPa SW 16.1 km/h 25.7 km/h 84 % 0 mm 26 W/m2
06:11 13.8 °C 11.2 °C 1010.4 hPa SW 16.1 km/h 25.7 km/h 84 % 0 mm 69 W/m2
06:16 13.9 °C 11.2 °C 1010.4 hPa SW 16.1 km/h 29 km/h 84 % 0 mm 40 W/m2
06:21 14 °C 11.3 °C 1010.4 hPa SW 17.7 km/h 37 km/h 84 % 0 mm 49 W/m2
06:26 14.1 °C 11.3 °C 1010.4 hPa SW 20.9 km/h 37 km/h 83 % 0 mm 44 W/m2
06:31 14.2 °C 11.3 °C 1010.4 hPa SW 20.9 km/h 35.4 km/h 83 % 0 mm 42 W/m2
06:36 14.3 °C 11.4 °C 1010.4 hPa SW 20.9 km/h 32.2 km/h 83 % 0 mm 46 W/m2
06:41 14.3 °C 11.4 °C 1010.4 hPa SW 20.9 km/h 32.2 km/h 83 % 0 mm 49 W/m2
06:46 14.4 °C 11.6 °C 1010.4 hPa SW 19.3 km/h 33.8 km/h 83 % 0 mm 56 W/m2
06:51 14.5 °C 11.4 °C 1010.4 hPa SW 20.9 km/h 33.8 km/h 82 % 0 mm 83 W/m2
06:56 14.6 °C 11.6 °C 1010.4 hPa SW 22.5 km/h 37 km/h 82 % 0 mm 114 W/m2
07:01 14.7 °C 11.4 °C 1010.4 hPa SW 22.5 km/h 37 km/h 81 % 0 mm 116 W/m2
07:06 14.7 °C 11.7 °C 1010.4 hPa SW 20.9 km/h 35.4 km/h 82 % 0 mm 125 W/m2
07:11 14.7 °C 11.4 °C 1010.4 hPa SW 19.3 km/h 32.2 km/h 81 % 0 mm 134 W/m2
07:21 14.7 °C 11.4 °C 1010.4 hPa SW 20.9 km/h 32.2 km/h 81 % 0 mm 141 W/m2
07:26 14.7 °C 11.7 °C 1010.4 hPa SW 19.3 km/h 32.2 km/h 82 % 0 mm 130 W/m2
07:31 14.7 °C 11.7 °C 1010.4 hPa SW 17.7 km/h 29 km/h 82 % 0 mm 137 W/m2
07:36 14.7 °C 11.7 °C 1010.4 hPa SW 17.7 km/h 32.2 km/h 82 % 0 mm 156 W/m2
07:37 14.7 °C 11.7 °C 1010.4 hPa SW 17.7 km/h 32.2 km/h 82 % 0 mm 156 W/m2
07:42 14.7 °C 11.7 °C 1010.4 hPa SW 19.3 km/h 32.2 km/h 82 % 0 mm 158 W/m2
07:47 14.7 °C 11.7 °C 1010.4 hPa SW 19.3 km/h 32.2 km/h 82 % 0 mm 153 W/m2
07:52 14.8 °C 11.8 °C 1010.4 hPa SW 17.7 km/h 29 km/h 82 % 0 mm 153 W/m2
07:57 14.8 °C 11.8 °C 1010.4 hPa SW 16.1 km/h 29 km/h 82 % 0 mm 162 W/m2
08:02 14.8 °C 11.6 °C 1010.4 hPa SW 16.1 km/h 30.6 km/h 81 % 0 mm 163 W/m2
08:07 14.9 °C 11.8 °C 1010.4 hPa SW 14.5 km/h 30.6 km/h 82 % 0 mm 171 W/m2
08:12 14.9 °C 11.5 °C 1010.4 hPa SW 16.1 km/h 33.8 km/h 80 % 0 mm 167 W/m2
08:17 15 °C 11.6 °C 1010.4 hPa SW 19.3 km/h 33.8 km/h 80 % 0 mm 163 W/m2
08:27 15.1 °C 11.7 °C 1010.4 hPa SW 16.1 km/h 25.7 km/h 80 % 0 mm 167 W/m2
08:32 15.1 °C 11.3 °C 1010.4 hPa SW 16.1 km/h 29 km/h 78 % 0 mm 202 W/m2
08:37 15.2 °C 11.4 °C 1010.4 hPa SW 16.1 km/h 29 km/h 78 % 0 mm 220 W/m2
08:42 15.3 °C 11.5 °C 1010.4 hPa SW 17.7 km/h 32.2 km/h 78 % 0 mm 183 W/m2
08:47 15.3 °C 11.3 °C 1010.4 hPa SW 19.3 km/h 32.2 km/h 77 % 0 mm 232 W/m2
08:52 15.4 °C 11.4 °C 1010.4 hPa SW 19.3 km/h 40.2 km/h 77 % 0 mm 311 W/m2
08:57 15.5 °C 11.5 °C 1010.4 hPa SW 19.3 km/h 40.2 km/h 77 % 0 mm 174 W/m2
09:02 15.4 °C 11.4 °C 1010.4 hPa SW 19.3 km/h 32.2 km/h 77 % 0 mm 130 W/m2
09:07 15.4 °C 11.4 °C 1010.4 hPa SW 17.7 km/h 29 km/h 77 % 0 mm 153 W/m2
09:12 15.4 °C 11.4 °C 1010.4 hPa SW 17.7 km/h 29 km/h 77 % 0 mm 153 W/m2
09:17 15.4 °C 11.4 °C 1010.4 hPa SW 17.7 km/h 32.2 km/h 77 % 0 mm 297 W/m2
09:22 15.7 °C 11.7 °C 1010.4 hPa SW 17.7 km/h 32.2 km/h 77 % 0 mm 554 W/m2
09:27 15.9 °C 11.4 °C 1010 hPa SW 17.7 km/h 29 km/h 75 % 0 mm 489 W/m2
09:32 16.2 °C 11.6 °C 1010 hPa SW 17.7 km/h 37 km/h 74 % 0 mm 327 W/m2
09:37 16.2 °C 11.3 °C 1010 hPa SW 19.3 km/h 37 km/h 73 % 0 mm 287 W/m2
09:42 16.1 °C 11.4 °C 1010 hPa SW 19.3 km/h 32.2 km/h 74 % 0 mm 401 W/m2
09:47 16.2 °C 11.6 °C 1010 hPa SW 17.7 km/h 29 km/h 74 % 0 mm 200 W/m2
09:53 16.1 °C 11.3 °C 1010 hPa SW 17.7 km/h 29 km/h 73 % 0 mm 246 W/m2
09:58 16.2 °C 11.6 °C 1010 hPa SW 19.3 km/h 30.6 km/h 74 % 0 mm 271 W/m2
10:03 16.4 °C 11.8 °C 1009.7 hPa SW 19.3 km/h 32.2 km/h 74 % 0 mm 1002 W/m2
10:08 16.7 °C 11.8 °C 1009.7 hPa SW 20.9 km/h 32.2 km/h 73 % 0 mm 274 W/m2
10:13 16.6 °C 11.6 °C 1009.7 hPa SW 19.3 km/h 35.4 km/h 72 % 0 mm 276 W/m2
10:18 16.5 °C 11.4 °C 1009.7 hPa SW 20.9 km/h 37 km/h 72 % 0 mm 193 W/m2
10:23 16.4 °C 11.3 °C 1010 hPa SW 22.5 km/h 38.6 km/h 72 % 0 mm 207 W/m2
10:28 16.4 °C 11.3 °C 1009.7 hPa SW 22.5 km/h 38.6 km/h 72 % 0 mm 394 W/m2
10:33 16.6 °C 11.6 °C 1009.7 hPa SW 19.3 km/h 33.8 km/h 72 % 0 mm 278 W/m2
10:38 16.7 °C 11.4 °C 1009.7 hPa SW 16.1 km/h 29 km/h 71 % 0 mm 497 W/m2
10:43 17.1 °C 11.8 °C 1009.4 hPa SW 16.1 km/h 35.4 km/h 71 % 0 mm 1039 W/m2
10:48 17.3 °C 11.1 °C 1009.4 hPa SW 20.9 km/h 41.8 km/h 67 % 0 mm 489 W/m2
10:53 17.3 °C 11.3 °C 1009.7 hPa SW 24.1 km/h 41.8 km/h 68 % 0 mm 301 W/m2
10:58 17.2 °C 10.8 °C 1009.7 hPa SW 22.5 km/h 40.2 km/h 66 % 0 mm 332 W/m2
11:03 17.3 °C 11.3 °C 1009.4 hPa SW 22.5 km/h 40.2 km/h 68 % 0 mm 432 W/m2
11:08 17.6 °C 11.8 °C 1009.4 hPa SW 19.3 km/h 33.8 km/h 69 % 0 mm 425 W/m2
11:13 17.9 °C 11.4 °C 1009.4 hPa SW 19.3 km/h 35.4 km/h 66 % 0 mm 425 W/m2
11:18 17.8 °C 11.1 °C 1009.4 hPa SSW 24.1 km/h 43.5 km/h 65 % 0 mm 285 W/m2
11:23 17.5 °C 11.5 °C 1009.4 hPa SSW 22.5 km/h 43.5 km/h 68 % 0 mm 357 W/m2
11:28 17.3 °C 11.6 °C 1009.4 hPa SW 19.3 km/h 30.6 km/h 69 % 0 mm 165 W/m2
11:33 17.1 °C 11.8 °C 1009.4 hPa SSW 19.3 km/h 32.2 km/h 71 % 0 mm 362 W/m2
11:38 17.1 °C 11.8 °C 1009 hPa SSW 16.1 km/h 32.2 km/h 71 % 0 mm 355 W/m2
11:43 17.2 °C 11.7 °C 1009 hPa SSW 17.7 km/h 32.2 km/h 70 % 0 mm 278 W/m2
11:48 17.3 °C 11.3 °C 1009 hPa SSW 17.7 km/h 33.8 km/h 68 % 0 mm 214 W/m2
11:53 17.3 °C 11.3 °C 1008.7 hPa SSW 17.7 km/h 33.8 km/h 68 % 0 mm 285 W/m2
11:58 17.4 °C 11.4 °C 1008.7 hPa SW 20.9 km/h 32.2 km/h 68 % 0 mm 438 W/m2
12:03 17.8 °C 11.6 °C 1008.7 hPa SW 17.7 km/h 32.2 km/h 67 % 0 mm 469 W/m2
12:08 17.9 °C 11.7 °C 1008.7 hPa SW 17.7 km/h 33.8 km/h 67 % 0 mm 452 W/m2
12:13 18 °C 11.6 °C 1008.4 hPa SW 17.7 km/h 33.8 km/h 66 % 0 mm 220 W/m2
12:18 18 °C 11.6 °C 1008.7 hPa SW 16.1 km/h 30.6 km/h 66 % 0 mm 213 W/m2
12:23 17.8 °C 11.3 °C 1008.4 hPa SW 17.7 km/h 30.6 km/h 66 % 0 mm 299 W/m2
12:28 17.7 °C 11.3 °C 1008.4 hPa SW 20.9 km/h 40.2 km/h 66 % 0 mm 218 W/m2
12:33 17.7 °C 11.3 °C 1008.4 hPa SW 20.9 km/h 40.2 km/h 66 % 0 mm 156 W/m2
12:38 17.7 °C 11.5 °C 1008.4 hPa SW 17.7 km/h 33.8 km/h 67 % 0 mm 360 W/m2
12:43 17.8 °C 11.6 °C 1008.4 hPa SW 14.5 km/h 24.1 km/h 67 % 0 mm 260 W/m2
12:49 17.9 °C 11.2 °C 1008.4 hPa SW 16.1 km/h 37 km/h 65 % 0 mm 232 W/m2
12:53 17.9 °C 11 °C 1008.4 hPa SW 20.9 km/h 40.2 km/h 64 % 0 mm 229 W/m2
12:59 17.9 °C 11 °C 1008.4 hPa SW 19.3 km/h 40.2 km/h 64 % 0 mm 163 W/m2
13:04 17.9 °C 10.8 °C 1008.4 hPa SW 19.3 km/h 33.8 km/h 63 % 0 mm 151 W/m2
13:09 17.9 °C 10.3 °C 1008.4 hPa SW 22.5 km/h 45.1 km/h 61 % 0 mm 373 W/m2
13:14 17.9 °C 10.3 °C 1008.4 hPa SW 25.7 km/h 45.1 km/h 61 % 0 mm 346 W/m2
13:19 18 °C 10.1 °C 1008 hPa SW 27.4 km/h 46.7 km/h 60 % 0 mm 380 W/m2
13:24 18.1 °C 10.4 °C 1008 hPa SW 24.1 km/h 46.7 km/h 61 % 0 mm 506 W/m2
13:29 18.4 °C 11 °C 1008 hPa SW 20.9 km/h 43.5 km/h 62 % 0 mm 561 W/m2
13:34 18.6 °C 10.7 °C 1008 hPa SW 19.3 km/h 35.4 km/h 60 % 0 mm 211 W/m2
13:40 18.3 °C 10.4 °C 1008.4 hPa SW 22.5 km/h 41.8 km/h 60 % 0 mm 279 W/m2
13:45 18.3 °C 10.9 °C 1008 hPa SW 22.5 km/h 41.8 km/h 62 % 0 mm 288 W/m2
13:50 18.3 °C 10.9 °C 1008 hPa SW 20.9 km/h 35.4 km/h 62 % 0 mm 343 W/m2
13:55 18.3 °C 10.9 °C 1008 hPa SW 19.3 km/h 35.4 km/h 62 % 0 mm 274 W/m2
14:00 18.2 °C 10.6 °C 1008 hPa SW 20.9 km/h 37 km/h 61 % 0 mm 438 W/m2
14:05 18.3 °C 10.7 °C 1008 hPa SSW 25.7 km/h 41.8 km/h 61 % 0 mm 459 W/m2
14:10 18.5 °C 11.1 °C 1008 hPa SSW 25.7 km/h 41.8 km/h 62 % 0 mm 480 W/m2
14:12 18.7 °C 10.8 °C 1008 hPa SW 24.1 km/h 41.8 km/h 60 % 0 mm 480 W/m2
14:17 18.8 °C 10.9 °C 1008 hPa SW 24.1 km/h 38.6 km/h 60 % 0 mm 501 W/m2
14:22 18.8 °C 11.4 °C 1007.7 hPa SW 20.9 km/h 37 km/h 62 % 0 mm 276 W/m2
14:27 18.6 °C 10.7 °C 1007.7 hPa SSW 22.5 km/h 45.1 km/h 60 % 0 mm 322 W/m2
14:32 18.6 °C 10.9 °C 1007.7 hPa SW 27.4 km/h 45.1 km/h 61 % 0 mm 322 W/m2
14:37 19.1 °C 11.4 °C 1007.7 hPa SW 25.7 km/h 43.5 km/h 61 % 0 mm 997 W/m2
14:42 19.1 °C 11.2 °C 1007.7 hPa SW 25.7 km/h 48.3 km/h 60 % 0 mm 345 W/m2
14:47 19.2 °C 11.7 °C 1007.3 hPa SW 25.7 km/h 48.3 km/h 62 % 0 mm 962 W/m2
14:52 19.3 °C 11.6 °C 1007.7 hPa SW 25.7 km/h 46.7 km/h 61 % 0 mm 1071 W/m2
14:57 19.2 °C 11.2 °C 1007.7 hPa SW 30.6 km/h 61.2 km/h 60 % 0 mm 837 W/m2
15:02 19 °C 11.3 °C 1007.7 hPa WSW 30.6 km/h 61.2 km/h 61 % 0 mm 264 W/m2
15:07 18.6 °C 11.4 °C 1007.3 hPa SW 29 km/h 48.3 km/h 63 % 0 mm 411 W/m2
15:13 18.4 °C 11.4 °C 1007.7 hPa SW 29 km/h 51.5 km/h 64 % 0 mm 137 W/m2
15:18 18.1 °C 12.3 °C 1007.7 hPa WSW 24.1 km/h 51.5 km/h 69 % 0 mm 98 W/m2
15:23 17.3 °C 12.8 °C 1007.7 hPa WSW 22.5 km/h 38.6 km/h 75 % 0.25 mm 287 W/m2
15:28 16.3 °C 12.8 °C 1007.7 hPa SW 22.5 km/h 38.6 km/h 80 % 0.25 mm 404 W/m2
15:33 16 °C 12.9 °C 1007.3 hPa SW 22.5 km/h 38.6 km/h 82 % 0.25 mm 420 W/m2
15:38 15.9 °C 13 °C 1007.3 hPa SW 24.1 km/h 41.8 km/h 83 % 0.25 mm 738 W/m2
15:43 16.2 °C 13.5 °C 1007.3 hPa SW 20.9 km/h 41.8 km/h 84 % 0.25 mm 735 W/m2
15:48 16.4 °C 13.1 °C 1007.3 hPa SW 20.9 km/h 38.6 km/h 81 % 0.25 mm 770 W/m2
15:53 16.6 °C 12.9 °C 1007.3 hPa SW 22.5 km/h 38.6 km/h 79 % 0.25 mm 373 W/m2
15:58 16.6 °C 12.9 °C 1007.3 hPa SW 20.9 km/h 37 km/h 79 % 0.25 mm 327 W/m2
16:03 16.8 °C 12.9 °C 1007.3 hPa SW 19.3 km/h 35.4 km/h 78 % 0.25 mm 916 W/m2
16:08 17.3 °C 13 °C 1007.3 hPa SW 19.3 km/h 37 km/h 76 % 0.25 mm 849 W/m2
16:13 17.6 °C 12.9 °C 1007.3 hPa SW 20.9 km/h 41.8 km/h 74 % 0.25 mm 339 W/m2
16:18 17.5 °C 12.8 °C 1007.3 hPa SW 20.9 km/h 41.8 km/h 74 % 0.25 mm 302 W/m2
16:23 17.4 °C 12.9 °C 1007 hPa SW 19.3 km/h 37 km/h 75 % 0 mm 714 W/m2
16:28 17.7 °C 12.6 °C 1006.7 hPa SW 19.3 km/h 33.8 km/h 72 % 0 mm 701 W/m2
16:33 17.8 °C 12.4 °C 1006.7 hPa SW 22.5 km/h 38.6 km/h 71 % 0 mm 693 W/m2
16:38 17.8 °C 12.3 °C 1006.7 hPa SW 22.5 km/h 38.6 km/h 70 % 0 mm 693 W/m2
16:43 17.7 °C 12.2 °C 1007 hPa SW 20.9 km/h 38.6 km/h 70 % 0 mm 626 W/m2
16:53 17.9 °C 11.9 °C 1007 hPa SW 20.9 km/h 37 km/h 68 % 0 mm 626 W/m2
16:58 18.2 °C 10.6 °C 1007 hPa SW 24.1 km/h 54.7 km/h 61 % 0 mm 628 W/m2
17:03 18.4 °C 10.5 °C 1007 hPa WSW 29 km/h 54.7 km/h 60 % 0 mm 605 W/m2
17:08 18.5 °C 10.1 °C 1007 hPa SW 30.6 km/h 48.3 km/h 58 % 0 mm 622 W/m2
17:13 18.5 °C 10.3 °C 1007 hPa SW 29 km/h 48.3 km/h 59 % 0 mm 654 W/m2
17:18 18.5 °C 10.6 °C 1007 hPa SW 25.7 km/h 45.1 km/h 60 % 0 mm 633 W/m2
17:23 18.6 °C 9.9 °C 1007 hPa WSW 24.1 km/h 46.7 km/h 57 % 0 mm 236 W/m2
17:28 18.6 °C 10.2 °C 1007 hPa WSW 27.4 km/h 51.5 km/h 58 % 0 mm 207 W/m2
17:33 18.7 °C 10.3 °C 1006.7 hPa WSW 27.4 km/h 51.5 km/h 58 % 0 mm 206 W/m2
17:38 18.3 °C 10.2 °C 1007 hPa WSW 27.4 km/h 53.1 km/h 59 % 0 mm 178 W/m2
17:43 17.9 °C 10.5 °C 1007 hPa SW 27.4 km/h 53.1 km/h 62 % 0 mm 239 W/m2
17:48 18.1 °C 10.9 °C 1007 hPa SW 24.1 km/h 41.8 km/h 63 % 0 mm 325 W/m2
17:58 18 °C 10.1 °C 1007 hPa WSW 27.4 km/h 46.7 km/h 60 % 0 mm 146 W/m2
18:03 17.7 °C 10.1 °C 1007 hPa WSW 30.6 km/h 49.9 km/h 61 % 0 mm 225 W/m2
18:08 17.8 °C 10.2 °C 1007 hPa WSW 29 km/h 49.9 km/h 61 % 0 mm 431 W/m2
18:13 17.9 °C 10 °C 1007 hPa WSW 27.4 km/h 48.3 km/h 60 % 0 mm 401 W/m2
18:18 17.8 °C 9.7 °C 1007 hPa WSW 30.6 km/h 51.5 km/h 59 % 0 mm 383 W/m2
18:23 17.8 °C 9.9 °C 1007 hPa WSW 27.4 km/h 51.5 km/h 60 % 0 mm 369 W/m2
18:28 17.9 °C 9.8 °C 1007 hPa WSW 22.5 km/h 41.8 km/h 59 % 0 mm 353 W/m2
18:33 17.9 °C 9.5 °C 1007 hPa WSW 24.1 km/h 43.5 km/h 58 % 0 mm 339 W/m2
18:38 17.9 °C 9.3 °C 1007 hPa WSW 27.4 km/h 46.7 km/h 57 % 0 mm 327 W/m2
18:43 17.8 °C 9.2 °C 1007 hPa WSW 32.2 km/h 51.5 km/h 57 % 0 mm 332 W/m2
18:49 17.6 °C 9.5 °C 1007 hPa WSW 29 km/h 51.5 km/h 59 % 0 mm 327 W/m2
18:54 17.5 °C 9.7 °C 1007 hPa WSW 27.4 km/h 46.7 km/h 60 % 0 mm 295 W/m2
18:59 17.4 °C 9.8 °C 1007 hPa SW 25.7 km/h 46.7 km/h 61 % 0 mm 267 W/m2
19:04 17.2 °C 9.6 °C 1007 hPa WSW 24.1 km/h 51.5 km/h 61 % 0 mm 54 W/m2
19:09 16.9 °C 9.6 °C 1007 hPa WSW 27.4 km/h 51.5 km/h 62 % 0 mm 53 W/m2
19:14 16.7 °C 9.6 °C 1006.7 hPa WSW 24.1 km/h 46.7 km/h 63 % 0 mm 162 W/m2
19:19 16.6 °C 9.8 °C 1006.7 hPa WSW 22.5 km/h 38.6 km/h 64 % 0 mm 32 W/m2
19:24 16.4 °C 9.6 °C 1006.7 hPa WSW 22.5 km/h 40.2 km/h 64 % 0 mm 257 W/m2
19:29 16.4 °C 9.8 °C 1006.7 hPa WSW 24.1 km/h 40.2 km/h 65 % 0 mm 197 W/m2
19:34 16.4 °C 9.8 °C 1006.7 hPa SW 24.1 km/h 40.2 km/h 65 % 0 mm 176 W/m2
19:39 16.3 °C 9.7 °C 1006.7 hPa SW 25.7 km/h 48.3 km/h 65 % 0 mm 163 W/m2
19:44 16.3 °C 9.7 °C 1006.7 hPa WSW 29 km/h 48.3 km/h 65 % 0 mm 153 W/m2
19:49 16.4 °C 9.6 °C 1006.7 hPa WSW 29 km/h 49.9 km/h 64 % 0 mm 142 W/m2
19:54 16.3 °C 9.5 °C 1007 hPa WSW 29 km/h 49.9 km/h 64 % 0 mm 30 W/m2
19:59 16.1 °C 9.3 °C 1007 hPa WSW 29 km/h 49.9 km/h 64 % 0 mm 26 W/m2
20:04 15.9 °C 9.6 °C 1007 hPa WSW 27.4 km/h 49.9 km/h 66 % 0 mm 104 W/m2
20:09 15.8 °C 9.2 °C 1007 hPa WSW 29 km/h 48.3 km/h 65 % 0 mm 25 W/m2
20:14 15.7 °C 9.4 °C 1007 hPa WSW 27.4 km/h 48.3 km/h 66 % 0 mm 26 W/m2
20:19 15.6 °C 9.5 °C 1007 hPa WSW 25.7 km/h 48.3 km/h 67 % 0 mm 28 W/m2
20:24 15.5 °C 9.4 °C 1007 hPa WSW 27.4 km/h 48.3 km/h 67 % 0 mm 33 W/m2
20:29 15.5 °C 9.6 °C 1007 hPa WSW 25.7 km/h 43.5 km/h 68 % 0 mm 26 W/m2
20:34 15.4 °C 9.5 °C 1007 hPa WSW 22.5 km/h 40.2 km/h 68 % 0 mm 21 W/m2
20:39 15.3 °C 9.7 °C 1007 hPa WSW 20.9 km/h 41.8 km/h 69 % 0 mm 19 W/m2
20:44 15.2 °C 9.6 °C 1007 hPa WSW 25.7 km/h 51.5 km/h 69 % 0 mm 28 W/m2
20:49 15.2 °C 9.3 °C 1007 hPa WSW 29 km/h 51.5 km/h 68 % 0 mm 23 W/m2
20:54 15.2 °C 9.6 °C 1007 hPa WSW 25.7 km/h 46.7 km/h 69 % 0 mm 26 W/m2
20:59 15.1 °C 9.4 °C 1007 hPa WSW 22.5 km/h 41.8 km/h 69 % 0 mm 16 W/m2
21:04 15 °C 9.3 °C 1007 hPa WSW 20.9 km/h 40.2 km/h 69 % 0 mm 12 W/m2
21:09 14.9 °C 9.3 °C 1007 hPa WSW 20.9 km/h 45.1 km/h 69 % 0 mm 11 W/m2
21:14 14.8 °C 9.2 °C 1007 hPa WSW 24.1 km/h 45.1 km/h 69 % 0 mm 9 W/m2
21:19 14.8 °C 9.2 °C 1007 hPa WSW 25.7 km/h 48.3 km/h 69 % 0 mm 9 W/m2
21:24 14.7 °C 9.1 °C 1007.3 hPa WSW 27.4 km/h 48.3 km/h 69 % 0 mm 7 W/m2
21:29 14.7 °C 9.1 °C 1007.3 hPa WSW 25.7 km/h 41.8 km/h 69 % 0 mm 5 W/m2
21:34 14.7 °C 9.1 °C 1007.3 hPa WSW 22.5 km/h 37 km/h 69 % 0 mm 0 W/m2
21:39 14.6 °C 9.2 °C 1007.3 hPa WSW 19.3 km/h 33.8 km/h 70 % 0 mm 0 W/m2
21:50 14.5 °C 8.9 °C 1007.7 hPa WSW 22.5 km/h 38.6 km/h 69 % 0 mm 0 W/m2
21:55 14.4 °C 9 °C 1007.7 hPa WSW 20.9 km/h 38.6 km/h 70 % 0 mm 0 W/m2
22:00 14.3 °C 8.9 °C 1007.7 hPa WSW 19.3 km/h 37 km/h 70 % 0 mm 0 W/m2
22:05 14.3 °C 9.1 °C 1008 hPa WSW 19.3 km/h 35.4 km/h 71 % 0 mm 0 W/m2
22:10 14.2 °C 9 °C 1008 hPa WSW 19.3 km/h 35.4 km/h 71 % 0 mm 0 W/m2
22:15 14.1 °C 9.1 °C 1008 hPa WSW 17.7 km/h 32.2 km/h 72 % 0 mm 0 W/m2
22:20 14 °C 9.2 °C 1008 hPa WSW 17.7 km/h 33.8 km/h 73 % 0 mm 0 W/m2
22:25 14 °C 9.2 °C 1008 hPa WSW 20.9 km/h 37 km/h 73 % 0 mm 0 W/m2
22:30 14 °C 9.2 °C 1008 hPa WSW 20.9 km/h 37 km/h 73 % 0 mm 0 W/m2
22:35 14 °C 9.4 °C 1008 hPa WSW 22.5 km/h 40.2 km/h 74 % 0 mm 0 W/m2
22:40 14.1 °C 9.6 °C 1008 hPa WSW 25.7 km/h 45.1 km/h 74 % 0 mm 0 W/m2
22:45 14.1 °C 9.6 °C 1008 hPa WSW 24.1 km/h 45.1 km/h 74 % 0 mm 0 W/m2
22:50 14.1 °C 9.6 °C 1008.4 hPa WSW 20.9 km/h 37 km/h 74 % 0 mm 0 W/m2
22:55 14.1 °C 9.6 °C 1008.4 hPa WSW 19.3 km/h 33.8 km/h 74 % 0 mm 0 W/m2
23:00 14.2 °C 9.6 °C 1008.4 hPa WSW 17.7 km/h 30.6 km/h 74 % 0 mm 0 W/m2
23:05 14.2 °C 9.8 °C 1008.4 hPa WSW 17.7 km/h 30.6 km/h 75 % 0 mm 0 W/m2
23:10 14.2 °C 9.8 °C 1008.4 hPa WSW 20.9 km/h 35.4 km/h 75 % 0 mm 0 W/m2
23:15 14.1 °C 9.7 °C 1008.4 hPa WSW 20.9 km/h 35.4 km/h 75 % 0 mm 0 W/m2
23:20 14.2 °C 9.8 °C 1008.4 hPa WSW 22.5 km/h 38.6 km/h 75 % 0 mm 0 W/m2
23:25 14.2 °C 9.8 °C 1008.4 hPa WSW 22.5 km/h 38.6 km/h 75 % 0 mm 0 W/m2
23:30 14.1 °C 9.7 °C 1008.4 hPa WSW 20.9 km/h 37 km/h 75 % 0 mm 0 W/m2
23:35 14.1 °C 9.7 °C 1008.4 hPa WSW 22.5 km/h 46.7 km/h 75 % 0 mm 0 W/m2
23:40 14.1 °C 9.9 °C 1008.4 hPa WSW 20.9 km/h 46.7 km/h 76 % 0 mm 0 W/m2
23:45 14.1 °C 9.9 °C 1008.4 hPa WSW 20.9 km/h 35.4 km/h 76 % 0 mm 0 W/m2
23:50 14 °C 9.8 °C 1008.4 hPa WSW 24.1 km/h 40.2 km/h 76 % 0 mm 0 W/m2
23:55 14 °C 9.8 °C 1008.4 hPa WSW 24.1 km/h 40.2 km/h 76 % 0 mm 0 W/m2
23:57 14 °C 9.8 °C 1008.4 hPa WSW 24.1 km/h 40.2 km/h 76 % 0 mm 0 W/m2
Delerius-Weather
Compliments of Weather Underground - 2.25 mb

Data updates at regular intervals.